Spring Mountain Youth Camp, Nevada Weather observations

Data are for 60 minute period ending at time listed.
 Day   Time   Solar   Ave.   Ave.  Ave.  Vector  Max.   Baro.   Total    
  of    of     Rad.   Air    Rel.  Wind   Wind   Wind  Press.  Precip.   
Year   Day            Temp.  Hum.  Speed  Dir.   Gust                    
2014   (PST)  Kw/m2    F      %     mph   deg.    mph    mb.     in.     
-------------------------------------------------------------------------
 261   22:00   0.00   57.8    21    1.5    95     4.0   790.6    0.00 
 261   23:00   0.00   57.0    27    2.0   126     5.9   790.6    0.00 
 262    0:00   0.00   57.3    25    2.5    64     7.7   790.7    0.00 
 262    1:00   0.00   56.3    30    4.2   106     8.3   790.7    0.00 
 262    2:00   0.00   55.7    33    2.5   135     6.8   790.8    0.00 
 262    3:00   0.00   55.0    35    5.1   152    12.2   790.8    0.00 
 262    4:00   0.00   53.8    42    5.5   162    12.8   790.8    0.00 
 262    5:00   0.00   53.9    43    7.9   171    16.2   790.8    0.00 
 262    6:00   0.01   53.7    40    7.4   162    15.8   791.1    0.00 
 262    7:00   0.12   54.3    44    7.2   160    12.1   791.5    0.00 
 262    8:00   0.39   58.1    42   10.1   160    18.3   791.9    0.00 
 262    9:00   0.59   59.9    39   10.7   157    18.8   792.2    0.00 
 262   10:00   0.75   61.3    39   10.2   152    21.5   792.5    0.00 
 262   11:00   0.85   63.4    34   10.1   150    22.0   792.6    0.00 
 262   12:00   0.91   64.7    28   14.2   162    25.6   792.5    0.00 
 262   13:00   0.89   65.0    24   12.4   150    23.8   792.4    0.00 
 262   14:00   0.80   65.5    28   12.0   153    24.7   792.3    0.00 
 262   15:00   0.66   65.0    31   13.7   157    25.2   792.2    0.00 
 262   16:00   0.43   64.1    32   13.1   163    21.7   792.2    0.00 
 262   17:00   0.22   62.0    34   11.1   150    18.1   792.4    0.00 
 262   18:00   0.02   59.0    36    9.4   157    16.8   792.6    0.00 
 262   19:00   0.00   57.9    35    7.7   157    12.9   792.7    0.00 
 262   20:00   0.00   56.8    34    5.5   160    10.4   792.9    0.00 
 262   21:00   0.00   56.3    35    6.8   157    10.2   793.0    0.00 

Return to Spring Mountain Youth Camp graphs page.


Western Regional Climate Center,wrcc@dri.edu